Escribe el Código OACI del Aeropuerto

Buscar por Aeropuerto o Ciudad

Información Meteorológica Actual

LEMG | Málaga Airport

Málaga, Andalusia, Spain

Última Actualización Hace 11 Minutos

Cielo Despejado

19 ºC de Temperatura

Vientos Leves del SurEste

Temperatura

19 ºC

Temperatura del Punto de Rocío

09 ºC

Humedad Relativa

52.44 %

Dirección del Viento

SurEste (140º, Variando entre 080º y 190º)

Velocidad del Viento

6 km/h (03 kt)

Ráfagas

No Hay

Visibilidad

Sin Reducciones de Consideración

Presión Reducida a Nivel del Mar

1019 hPa (Hectopascales)

Capas de Nubes

No Hay

METAR LEMG 071430Z 14003KT 080V190 CAVOK 19/09 Q1019 NOSIG

Pronóstico Meteorológico

LEMG | Málaga Airport

Málaga, Andalusia, Spain

Pronóstico válido para las próximas 21 Horas

En la próxima hora se espera el comienzo de:

Vientos Leves a Moderados del NorOeste

En 13 horas se espera el comienzo de 5 horas con períodos intermitentes de:

Lluvia, Neblina

En 16 a 18 horas se espera el comienzo de:

Vientos Moderados a Fuertes del Oeste

En 17 horas se espera el comienzo de 4 horas con períodos intermitentes de:

Vientos Fuertes del NorOeste con Ráfagas

Temperatura Máxima

21 ºC en -3 Horas

Temperatura Mínima

12 ºC en 16 Horas

TAF LEMG 071100Z 0712/0812 21004KT CAVOK TX21/0712Z TN12/0807Z BECMG 0714/0716 30008KT PROB30 TEMPO 0804/0809 4000 RA BR BKN010 BECMG 0807/0809 29018KT TEMPO 0808/0812 30022G33KT